sensor_id;sensor_type;location;lat;lon;timestamp;temperature;humidity
57088;DHT22;42965;52.846;6.614;2022-12-13T00:01:52;-4.10;99.90
57088;DHT22;42965;52.846;6.614;2022-12-13T00:04:22;-4.20;99.90
57088;DHT22;42965;52.846;6.614;2022-12-13T00:06:50;-4.20;99.90
57088;DHT22;42965;52.846;6.614;2022-12-13T00:09:19;-4.20;99.90
57088;DHT22;42965;52.846;6.614;2022-12-13T00:11:47;-4.20;99.90
57088;DHT22;42965;52.846;6.614;2022-12-13T00:14:14;-4.20;99.90
57088;DHT22;42965;52.846;6.614;2022-12-13T00:16:44;-4.20;99.90
57088;DHT22;42965;52.846;6.614;2022-12-13T00:19:11;-4.20;99.90
57088;DHT22;42965;52.846;6.614;2022-12-13T00:21:38;-4.20;99.90
57088;DHT22;42965;52.846;6.614;2022-12-13T00:24:05;-4.20;99.90
57088;DHT22;42965;52.846;6.614;2022-12-13T00:26:33;-4.20;99.90
57088;DHT22;42965;52.846;6.614;2022-12-13T00:29:05;-4.20;99.90
57088;DHT22;42965;52.846;6.614;2022-12-13T00:31:32;-4.30;99.90
57088;DHT22;42965;52.846;6.614;2022-12-13T00:33:59;-4.30;99.90
57088;DHT22;42965;52.846;6.614;2022-12-13T00:36:25;-4.40;99.90
57088;DHT22;42965;52.846;6.614;2022-12-13T00:38:52;-4.30;99.90
57088;DHT22;42965;52.846;6.614;2022-12-13T00:41:34;-4.30;99.90
57088;DHT22;42965;52.846;6.614;2022-12-13T00:44:02;-4.30;99.90
57088;DHT22;42965;52.846;6.614;2022-12-13T00:46:29;-4.30;99.90
57088;DHT22;42965;52.846;6.614;2022-12-13T00:48:57;-4.30;99.90
57088;DHT22;42965;52.846;6.614;2022-12-13T00:51:26;-4.30;99.90
57088;DHT22;42965;52.846;6.614;2022-12-13T00:53:52;-4.40;99.90
57088;DHT22;42965;52.846;6.614;2022-12-13T00:56:21;-4.40;99.90
57088;DHT22;42965;52.846;6.614;2022-12-13T00:58:49;-4.40;99.90
57088;DHT22;42965;52.846;6.614;2022-12-13T01:01:17;-4.50;99.90
57088;DHT22;42965;52.846;6.614;2022-12-13T01:03:44;-4.40;99.90
57088;DHT22;42965;52.846;6.614;2022-12-13T01:06:16;-4.40;99.90
57088;DHT22;42965;52.846;6.614;2022-12-13T01:08:45;-4.50;99.90
57088;DHT22;42965;52.846;6.614;2022-12-13T01:11:13;-4.50;99.90
57088;DHT22;42965;52.846;6.614;2022-12-13T01:13:40;-4.40;99.90
57088;DHT22;42965;52.846;6.614;2022-12-13T01:16:08;-4.40;99.90
57088;DHT22;42965;52.846;6.614;2022-12-13T01:18:35;-4.40;99.90
57088;DHT22;42965;52.846;6.614;2022-12-13T01:21:13;-4.30;99.90
57088;DHT22;42965;52.846;6.614;2022-12-13T01:23:42;-4.30;99.90
57088;DHT22;42965;52.846;6.614;2022-12-13T01:26:19;-4.30;99.90
57088;DHT22;42965;52.846;6.614;2022-12-13T01:28:47;-4.30;99.90
57088;DHT22;42965;52.846;6.614;2022-12-13T01:31:16;-4.30;99.90
57088;DHT22;42965;52.846;6.614;2022-12-13T01:33:45;-4.40;99.90
57088;DHT22;42965;52.846;6.614;2022-12-13T01:36:14;-4.50;99.90
57088;DHT22;42965;52.846;6.614;2022-12-13T01:38:41;-4.50;99.90
57088;DHT22;42965;52.846;6.614;2022-12-13T01:41:12;-4.60;99.90
57088;DHT22;42965;52.846;6.614;2022-12-13T01:46:05;-4.60;99.90
57088;DHT22;42965;52.846;6.614;2022-12-13T01:48:37;-4.60;99.90
57088;DHT22;42965;52.846;6.614;2022-12-13T01:51:06;-4.50;99.90
57088;DHT22;42965;52.846;6.614;2022-12-13T01:53:36;-4.60;99.90
57088;DHT22;42965;52.846;6.614;2022-12-13T01:56:11;-4.60;99.90
57088;DHT22;42965;52.846;6.614;2022-12-13T01:58:40;-4.60;99.90
57088;DHT22;42965;52.846;6.614;2022-12-13T02:01:06;-4.60;99.90
57088;DHT22;42965;52.846;6.614;2022-12-13T02:03:34;-4.60;99.90
57088;DHT22;42965;52.846;6.614;2022-12-13T02:06:06;-4.60;99.90
57088;DHT22;42965;52.846;6.614;2022-12-13T02:08:42;-4.60;99.90
57088;DHT22;42965;52.846;6.614;2022-12-13T02:11:10;-4.60;99.90
57088;DHT22;42965;52.846;6.614;2022-12-13T02:13:38;-4.60;99.90
57088;DHT22;42965;52.846;6.614;2022-12-13T02:27:15;-4.60;99.90
57088;DHT22;42965;52.846;6.614;2022-12-13T02:30:21;-4.70;99.90
57088;DHT22;42965;52.846;6.614;2022-12-13T02:38:28;-4.60;99.90
57088;DHT22;42965;52.846;6.614;2022-12-13T02:41:34;-4.60;99.90
57088;DHT22;42965;52.846;6.614;2022-12-13T02:44:22;-4.70;99.90
57088;DHT22;42965;52.846;6.614;2022-12-13T02:46:59;-4.70;99.90
57088;DHT22;42965;52.846;6.614;2022-12-13T02:49:40;-4.70;99.90
57088;DHT22;42965;52.846;6.614;2022-12-13T02:52:09;-4.70;99.90
57088;DHT22;42965;52.846;6.614;2022-12-13T02:54:36;-4.80;99.90
57088;DHT22;42965;52.846;6.614;2022-12-13T02:57:02;-4.80;99.90
57088;DHT22;42965;52.846;6.614;2022-12-13T02:59:37;-4.80;99.90
57088;DHT22;42965;52.846;6.614;2022-12-13T03:02:44;-4.90;99.90
57088;DHT22;42965;52.846;6.614;2022-12-13T03:08:17;-5.00;99.90
57088;DHT22;42965;52.846;6.614;2022-12-13T03:11:09;-5.00;99.90
57088;DHT22;42965;52.846;6.614;2022-12-13T03:14:12;-5.00;99.90
57088;DHT22;42965;52.846;6.614;2022-12-13T03:16:42;-5.00;99.90
57088;DHT22;42965;52.846;6.614;2022-12-13T03:19:10;-4.90;99.90
57088;DHT22;42965;52.846;6.614;2022-12-13T03:21:45;-4.90;99.90
57088;DHT22;42965;52.846;6.614;2022-12-13T03:24:13;-5.00;99.90
57088;DHT22;42965;52.846;6.614;2022-12-13T03:26:39;-5.10;99.90
57088;DHT22;42965;52.846;6.614;2022-12-13T03:29:06;-5.10;99.90
57088;DHT22;42965;52.846;6.614;2022-12-13T03:31:33;-5.10;99.90
57088;DHT22;42965;52.846;6.614;2022-12-13T03:33:59;-5.10;99.90
57088;DHT22;42965;52.846;6.614;2022-12-13T03:36:25;-5.10;99.90
57088;DHT22;42965;52.846;6.614;2022-12-13T03:38:53;-5.10;99.90
57088;DHT22;42965;52.846;6.614;2022-12-13T03:41:22;-5.20;99.90
57088;DHT22;42965;52.846;6.614;2022-12-13T03:44:03;-5.20;99.90
57088;DHT22;42965;52.846;6.614;2022-12-13T03:46:29;-5.10;99.90
57088;DHT22;42965;52.846;6.614;2022-12-13T03:48:56;-5.20;99.90
57088;DHT22;42965;52.846;6.614;2022-12-13T03:51:22;-5.20;99.90
57088;DHT22;42965;52.846;6.614;2022-12-13T03:53:49;-5.20;99.90
57088;DHT22;42965;52.846;6.614;2022-12-13T03:56:15;-5.20;99.90
57088;DHT22;42965;52.846;6.614;2022-12-13T03:58:42;-5.20;99.90
57088;DHT22;42965;52.846;6.614;2022-12-13T04:01:13;-5.20;99.90
57088;DHT22;42965;52.846;6.614;2022-12-13T04:03:42;-5.20;99.90
57088;DHT22;42965;52.846;6.614;2022-12-13T04:06:10;-5.20;99.90
57088;DHT22;42965;52.846;6.614;2022-12-13T04:08:37;-5.20;99.90
57088;DHT22;42965;52.846;6.614;2022-12-13T04:11:04;-5.10;99.90
57088;DHT22;42965;52.846;6.614;2022-12-13T04:13:51;-5.20;99.90
57088;DHT22;42965;52.846;6.614;2022-12-13T04:16:18;-5.10;99.90
57088;DHT22;42965;52.846;6.614;2022-12-13T04:18:44;-5.20;99.90
57088;DHT22;42965;52.846;6.614;2022-12-13T04:21:11;-5.10;99.90
57088;DHT22;42965;52.846;6.614;2022-12-13T04:23:40;-5.10;99.90
57088;DHT22;42965;52.846;6.614;2022-12-13T04:26:06;-5.20;99.90
57088;DHT22;42965;52.846;6.614;2022-12-13T04:28:33;-5.10;99.90
57088;DHT22;42965;52.846;6.614;2022-12-13T04:30:59;-5.10;99.90
57088;DHT22;42965;52.846;6.614;2022-12-13T04:33:25;-5.10;99.90
57088;DHT22;42965;52.846;6.614;2022-12-13T04:35:51;-5.20;99.90
57088;DHT22;42965;52.846;6.614;2022-12-13T04:38:18;-5.20;99.90
57088;DHT22;42965;52.846;6.614;2022-12-13T04:40:45;-5.20;99.90
57088;DHT22;42965;52.846;6.614;2022-12-13T04:43:11;-5.30;99.90
57088;DHT22;42965;52.846;6.614;2022-12-13T04:45:45;-5.20;99.90
57088;DHT22;42965;52.846;6.614;2022-12-13T04:48:11;-5.20;99.90
57088;DHT22;42965;52.846;6.614;2022-12-13T04:50:39;-5.20;99.90
57088;DHT22;42965;52.846;6.614;2022-12-13T04:53:06;-5.20;99.90
57088;DHT22;42965;52.846;6.614;2022-12-13T04:55:32;-5.30;99.90
57088;DHT22;42965;52.846;6.614;2022-12-13T04:57:58;-5.30;99.90
57088;DHT22;42965;52.846;6.614;2022-12-13T05:00:24;-5.30;99.90
57088;DHT22;42965;52.846;6.614;2022-12-13T05:02:51;-5.30;99.90
57088;DHT22;42965;52.846;6.614;2022-12-13T05:05:17;-5.30;99.90
57088;DHT22;42965;52.846;6.614;2022-12-13T05:07:45;-5.30;99.90
57088;DHT22;42965;52.846;6.614;2022-12-13T05:10:11;-5.30;99.90
57088;DHT22;42965;52.846;6.614;2022-12-13T05:12:37;-5.20;99.90
57088;DHT22;42965;52.846;6.614;2022-12-13T05:15:05;-5.20;99.90
57088;DHT22;42965;52.846;6.614;2022-12-13T05:17:31;-5.20;99.90
57088;DHT22;42965;52.846;6.614;2022-12-13T05:19:59;-5.20;99.90
57088;DHT22;42965;52.846;6.614;2022-12-13T05:22:26;-5.20;99.90
57088;DHT22;42965;52.846;6.614;2022-12-13T05:24:52;-5.20;99.90
57088;DHT22;42965;52.846;6.614;2022-12-13T05:27:19;-5.20;99.90
57088;DHT22;42965;52.846;6.614;2022-12-13T05:29:45;-5.20;99.90
57088;DHT22;42965;52.846;6.614;2022-12-13T05:32:12;-5.20;99.90
57088;DHT22;42965;52.846;6.614;2022-12-13T05:34:38;-5.20;99.90
57088;DHT22;42965;52.846;6.614;2022-12-13T05:37:05;-5.20;99.90
57088;DHT22;42965;52.846;6.614;2022-12-13T05:39:31;-5.20;99.90
57088;DHT22;42965;52.846;6.614;2022-12-13T05:41:58;-5.20;99.90
57088;DHT22;42965;52.846;6.614;2022-12-13T05:44:25;-5.20;99.90
57088;DHT22;42965;52.846;6.614;2022-12-13T05:46:51;-5.20;99.90
57088;DHT22;42965;52.846;6.614;2022-12-13T05:49:17;-5.20;99.90
57088;DHT22;42965;52.846;6.614;2022-12-13T05:51:44;-5.20;99.90
57088;DHT22;42965;52.846;6.614;2022-12-13T05:54:10;-5.20;99.90
57088;DHT22;42965;52.846;6.614;2022-12-13T05:56:42;-5.10;99.90
57088;DHT22;42965;52.846;6.614;2022-12-13T05:59:08;-5.10;99.90
57088;DHT22;42965;52.846;6.614;2022-12-13T06:01:35;-5.10;99.90
57088;DHT22;42965;52.846;6.614;2022-12-13T06:04:04;-5.20;99.90
57088;DHT22;42965;52.846;6.614;2022-12-13T06:06:32;-5.20;99.90
57088;DHT22;42965;52.846;6.614;2022-12-13T06:08:59;-5.20;99.90
57088;DHT22;42965;52.846;6.614;2022-12-13T06:11:27;-5.20;99.90
57088;DHT22;42965;52.846;6.614;2022-12-13T06:13:54;-5.20;99.90
57088;DHT22;42965;52.846;6.614;2022-12-13T06:16:21;-5.20;99.90
57088;DHT22;42965;52.846;6.614;2022-12-13T06:18:48;-5.20;99.90
57088;DHT22;42965;52.846;6.614;2022-12-13T06:21:14;-5.20;99.90
57088;DHT22;42965;52.846;6.614;2022-12-13T06:23:41;-5.20;99.90
57088;DHT22;42965;52.846;6.614;2022-12-13T06:26:07;-5.20;99.90
57088;DHT22;42965;52.846;6.614;2022-12-13T06:28:34;-5.20;99.90
57088;DHT22;42965;52.846;6.614;2022-12-13T06:31:03;-5.20;99.90
57088;DHT22;42965;52.846;6.614;2022-12-13T06:33:30;-5.20;99.90
57088;DHT22;42965;52.846;6.614;2022-12-13T06:36:01;-5.20;99.90
57088;DHT22;42965;52.846;6.614;2022-12-13T06:38:28;-5.30;99.90
57088;DHT22;42965;52.846;6.614;2022-12-13T06:41:11;-5.30;99.90
57088;DHT22;42965;52.846;6.614;2022-12-13T06:43:41;-5.30;99.90
57088;DHT22;42965;52.846;6.614;2022-12-13T06:46:09;-5.30;99.90
57088;DHT22;42965;52.846;6.614;2022-12-13T06:48:35;-5.30;99.90
57088;DHT22;42965;52.846;6.614;2022-12-13T06:51:03;-5.20;99.90
57088;DHT22;42965;52.846;6.614;2022-12-13T06:53:30;-5.20;99.90
57088;DHT22;42965;52.846;6.614;2022-12-13T06:55:56;-5.20;99.90
57088;DHT22;42965;52.846;6.614;2022-12-13T06:58:23;-5.20;99.90
57088;DHT22;42965;52.846;6.614;2022-12-13T07:01:03;-5.20;99.90
57088;DHT22;42965;52.846;6.614;2022-12-13T07:03:30;-5.20;99.90
57088;DHT22;42965;52.846;6.614;2022-12-13T07:06:05;-5.20;99.90
57088;DHT22;42965;52.846;6.614;2022-12-13T07:08:31;-5.20;99.90
57088;DHT22;42965;52.846;6.614;2022-12-13T07:11:00;-5.20;99.90
57088;DHT22;42965;52.846;6.614;2022-12-13T07:13:27;-5.20;99.90
57088;DHT22;42965;52.846;6.614;2022-12-13T07:15:59;-5.20;99.90
57088;DHT22;42965;52.846;6.614;2022-12-13T07:18:27;-5.20;99.90
57088;DHT22;42965;52.846;6.614;2022-12-13T07:20:53;-5.30;99.90
57088;DHT22;42965;52.846;6.614;2022-12-13T07:23:20;-5.30;99.90
57088;DHT22;42965;52.846;6.614;2022-12-13T07:25:53;-5.30;99.90
57088;DHT22;42965;52.846;6.614;2022-12-13T07:28:20;-5.30;99.90
57088;DHT22;42965;52.846;6.614;2022-12-13T07:30:47;-5.30;99.90
57088;DHT22;42965;52.846;6.614;2022-12-13T07:33:14;-5.30;99.90
57088;DHT22;42965;52.846;6.614;2022-12-13T07:35:44;-5.30;99.90
57088;DHT22;42965;52.846;6.614;2022-12-13T07:38:11;-5.30;99.90
57088;DHT22;42965;52.846;6.614;2022-12-13T07:40:39;-5.20;99.90
57088;DHT22;42965;52.846;6.614;2022-12-13T07:43:06;-5.20;99.90
57088;DHT22;42965;52.846;6.614;2022-12-13T07:45:32;-5.20;99.90
57088;DHT22;42965;52.846;6.614;2022-12-13T07:48:03;-5.20;99.90
57088;DHT22;42965;52.846;6.614;2022-12-13T07:50:29;-5.20;99.90
57088;DHT22;42965;52.846;6.614;2022-12-13T07:53:04;-5.10;99.90
57088;DHT22;42965;52.846;6.614;2022-12-13T07:55:32;-5.10;99.90
57088;DHT22;42965;52.846;6.614;2022-12-13T07:58:12;-5.10;99.90
57088;DHT22;42965;52.846;6.614;2022-12-13T08:00:41;-5.00;99.90
57088;DHT22;42965;52.846;6.614;2022-12-13T08:03:08;-5.00;99.90
57088;DHT22;42965;52.846;6.614;2022-12-13T08:05:35;-5.00;99.90
57088;DHT22;42965;52.846;6.614;2022-12-13T08:08:04;-5.00;99.90
57088;DHT22;42965;52.846;6.614;2022-12-13T08:10:31;-5.00;99.90
57088;DHT22;42965;52.846;6.614;2022-12-13T08:12:59;-4.90;99.90
57088;DHT22;42965;52.846;6.614;2022-12-13T08:15:28;-4.80;99.90
57088;DHT22;42965;52.846;6.614;2022-12-13T08:17:55;-4.80;99.90
57088;DHT22;42965;52.846;6.614;2022-12-13T08:20:22;-4.70;99.90
57088;DHT22;42965;52.846;6.614;2022-12-13T08:22:56;-4.60;99.90
57088;DHT22;42965;52.846;6.614;2022-12-13T08:25:23;-4.50;99.90
57088;DHT22;42965;52.846;6.614;2022-12-13T08:27:49;-4.50;99.90
57088;DHT22;42965;52.846;6.614;2022-12-13T08:30:15;-4.30;99.90
57088;DHT22;42965;52.846;6.614;2022-12-13T08:32:42;-4.20;99.90
57088;DHT22;42965;52.846;6.614;2022-12-13T08:35:08;-3.90;99.90
57088;DHT22;42965;52.846;6.614;2022-12-13T08:37:53;-3.50;99.90
57088;DHT22;42965;52.846;6.614;2022-12-13T08:40:19;-3.30;99.90
57088;DHT22;42965;52.846;6.614;2022-12-13T08:42:46;-3.20;99.90
57088;DHT22;42965;52.846;6.614;2022-12-13T08:45:14;-3.10;99.90
57088;DHT22;42965;52.846;6.614;2022-12-13T08:47:41;-3.00;99.90
57088;DHT22;42965;52.846;6.614;2022-12-13T08:50:08;-2.80;99.90
57088;DHT22;42965;52.846;6.614;2022-12-13T08:52:35;-2.70;99.90
57088;DHT22;42965;52.846;6.614;2022-12-13T08:55:04;-2.60;99.90
57088;DHT22;42965;52.846;6.614;2022-12-13T08:57:35;-2.60;99.90
57088;DHT22;42965;52.846;6.614;2022-12-13T09:00:03;-2.40;99.90
57088;DHT22;42965;52.846;6.614;2022-12-13T09:02:30;-2.40;99.90
57088;DHT22;42965;52.846;6.614;2022-12-13T09:04:56;-2.30;99.90
57088;DHT22;42965;52.846;6.614;2022-12-13T09:07:22;-2.30;99.90
57088;DHT22;42965;52.846;6.614;2022-12-13T09:09:49;-2.30;99.90
57088;DHT22;42965;52.846;6.614;2022-12-13T09:12:18;-2.30;99.90
57088;DHT22;42965;52.846;6.614;2022-12-13T09:14:45;-2.30;99.90
57088;DHT22;42965;52.846;6.614;2022-12-13T09:17:15;-2.40;99.90
57088;DHT22;42965;52.846;6.614;2022-12-13T09:19:43;-2.40;99.90
57088;DHT22;42965;52.846;6.614;2022-12-13T09:22:11;-2.30;99.90
57088;DHT22;42965;52.846;6.614;2022-12-13T09:24:37;-2.40;99.90
57088;DHT22;42965;52.846;6.614;2022-12-13T09:27:04;-2.20;99.90
57088;DHT22;42965;52.846;6.614;2022-12-13T09:29:32;-2.30;99.90
57088;DHT22;42965;52.846;6.614;2022-12-13T09:32:00;-2.20;99.90
57088;DHT22;42965;52.846;6.614;2022-12-13T09:34:26;-2.10;99.90
57088;DHT22;42965;52.846;6.614;2022-12-13T09:36:53;-2.00;99.90
57088;DHT22;42965;52.846;6.614;2022-12-13T09:39:19;-1.90;99.90
57088;DHT22;42965;52.846;6.614;2022-12-13T09:41:48;-1.80;99.90
57088;DHT22;42965;52.846;6.614;2022-12-13T09:44:33;-1.80;99.90
57088;DHT22;42965;52.846;6.614;2022-12-13T09:47:03;-1.90;99.90
57088;DHT22;42965;52.846;6.614;2022-12-13T09:49:34;-1.90;99.90
57088;DHT22;42965;52.846;6.614;2022-12-13T09:52:09;-2.00;99.90
57088;DHT22;42965;52.846;6.614;2022-12-13T09:54:38;-2.00;99.90
57088;DHT22;42965;52.846;6.614;2022-12-13T09:57:19;-1.90;99.90
57088;DHT22;42965;52.846;6.614;2022-12-13T09:59:46;-1.60;99.90
57088;DHT22;42965;52.846;6.614;2022-12-13T10:02:26;-1.40;99.90
57088;DHT22;42965;52.846;6.614;2022-12-13T10:05:28;-1.40;99.90
57088;DHT22;42965;52.846;6.614;2022-12-13T10:07:58;-1.20;99.90
57088;DHT22;42965;52.846;6.614;2022-12-13T10:10:30;-1.40;99.90
57088;DHT22;42965;52.846;6.614;2022-12-13T10:13:20;-1.30;99.90
57088;DHT22;42965;52.846;6.614;2022-12-13T10:15:59;-1.20;99.90
57088;DHT22;42965;52.846;6.614;2022-12-13T10:18:37;-1.00;99.90
57088;DHT22;42965;52.846;6.614;2022-12-13T10:21:11;-0.50;99.90
57088;DHT22;42965;52.846;6.614;2022-12-13T10:23:39;-0.20;99.90
57088;DHT22;42965;52.846;6.614;2022-12-13T10:26:11;0.10;99.90
57088;DHT22;42965;52.846;6.614;2022-12-13T10:28:39;0.30;99.90
57088;DHT22;42965;52.846;6.614;2022-12-13T10:31:07;0.30;99.90
57088;DHT22;42965;52.846;6.614;2022-12-13T10:33:37;0.40;99.90
57088;DHT22;42965;52.846;6.614;2022-12-13T10:38:39;0.40;99.90
57088;DHT22;42965;52.846;6.614;2022-12-13T10:44:16;0.80;99.90
57088;DHT22;42965;52.846;6.614;2022-12-13T10:46:48;0.50;99.90
57088;DHT22;42965;52.846;6.614;2022-12-13T10:49:23;0.40;99.90
57088;DHT22;42965;52.846;6.614;2022-12-13T10:51:52;0.50;99.90
57088;DHT22;42965;52.846;6.614;2022-12-13T10:54:29;0.60;99.90
57088;DHT22;42965;52.846;6.614;2022-12-13T10:57:01;0.60;99.90
57088;DHT22;42965;52.846;6.614;2022-12-13T10:59:36;0.90;99.90
57088;DHT22;42965;52.846;6.614;2022-12-13T11:04:55;1.60;99.90
57088;DHT22;42965;52.846;6.614;2022-12-13T11:07:25;1.30;99.90
57088;DHT22;42965;52.846;6.614;2022-12-13T11:09:52;1.30;99.90
57088;DHT22;42965;52.846;6.614;2022-12-13T11:12:25;1.30;99.90
57088;DHT22;42965;52.846;6.614;2022-12-13T11:15:00;1.20;99.90
57088;DHT22;42965;52.846;6.614;2022-12-13T11:17:31;1.10;99.90
57088;DHT22;42965;52.846;6.614;2022-12-13T11:20:03;1.20;99.90
57088;DHT22;42965;52.846;6.614;2022-12-13T11:22:38;1.20;99.90
57088;DHT22;42965;52.846;6.614;2022-12-13T11:30:57;0.70;99.90
57088;DHT22;42965;52.846;6.614;2022-12-13T11:34:17;0.60;99.90
57088;DHT22;42965;52.846;6.614;2022-12-13T11:36:49;0.60;99.90
57088;DHT22;42965;52.846;6.614;2022-12-13T11:42:07;0.30;99.90
57088;DHT22;42965;52.846;6.614;2022-12-13T11:44:44;0.30;99.90
57088;DHT22;42965;52.846;6.614;2022-12-13T11:47:23;0.40;99.90
57088;DHT22;42965;52.846;6.614;2022-12-13T11:49:51;0.40;99.90
57088;DHT22;42965;52.846;6.614;2022-12-13T11:52:23;0.40;99.90
57088;DHT22;42965;52.846;6.614;2022-12-13T11:55:04;0.60;99.90
57088;DHT22;42965;52.846;6.614;2022-12-13T11:57:43;0.60;99.90
57088;DHT22;42965;52.846;6.614;2022-12-13T12:03:21;0.50;99.90
57088;DHT22;42965;52.846;6.614;2022-12-13T12:05:58;0.80;99.90
57088;DHT22;42965;52.846;6.614;2022-12-13T12:08:39;1.00;99.90
57088;DHT22;42965;52.846;6.614;2022-12-13T12:14:13;2.30;99.90
57088;DHT22;42965;52.846;6.614;2022-12-13T12:16:57;2.50;99.90
57088;DHT22;42965;52.846;6.614;2022-12-13T12:19:26;2.60;99.90
57088;DHT22;42965;52.846;6.614;2022-12-13T12:25:14;3.00;99.90
57088;DHT22;42965;52.846;6.614;2022-12-13T12:33:37;3.40;99.90
57088;DHT22;42965;52.846;6.614;2022-12-13T12:50:11;2.30;99.90
57088;DHT22;42965;52.846;6.614;2022-12-13T12:52:50;2.30;99.90
57088;DHT22;42965;52.846;6.614;2022-12-13T12:58:00;2.30;99.90
57088;DHT22;42965;52.846;6.614;2022-12-13T13:00:42;2.50;99.90
57088;DHT22;42965;52.846;6.614;2022-12-13T13:03:22;3.40;99.90
57088;DHT22;42965;52.846;6.614;2022-12-13T13:05:57;4.10;99.90
57088;DHT22;42965;52.846;6.614;2022-12-13T13:08:44;4.40;99.90
57088;DHT22;42965;52.846;6.614;2022-12-13T13:11:17;4.40;99.90
57088;DHT22;42965;52.846;6.614;2022-12-13T13:16:47;4.70;99.90
57088;DHT22;42965;52.846;6.614;2022-12-13T13:21:51;5.30;99.90
57088;DHT22;42965;52.846;6.614;2022-12-13T13:26:52;6.20;99.90
57088;DHT22;42965;52.846;6.614;2022-12-13T13:34:31;6.80;99.90
57088;DHT22;42965;52.846;6.614;2022-12-13T13:37:04;6.20;99.90
57088;DHT22;42965;52.846;6.614;2022-12-13T13:42:19;6.00;99.90
57088;DHT22;42965;52.846;6.614;2022-12-13T13:45:19;6.00;99.90
57088;DHT22;42965;52.846;6.614;2022-12-13T13:48:06;6.20;99.90
57088;DHT22;42965;52.846;6.614;2022-12-13T14:02:39;6.40;99.90
57088;DHT22;42965;52.846;6.614;2022-12-13T14:08:44;6.10;99.90
57088;DHT22;42965;52.846;6.614;2022-12-13T14:26:09;3.60;99.90
57088;DHT22;42965;52.846;6.614;2022-12-13T14:31:17;2.50;99.90
57088;DHT22;42965;52.846;6.614;2022-12-13T14:33:45;2.10;99.90
57088;DHT22;42965;52.846;6.614;2022-12-13T14:36:16;1.80;99.90
57088;DHT22;42965;52.846;6.614;2022-12-13T14:38:43;1.50;99.90
57088;DHT22;42965;52.846;6.614;2022-12-13T14:41:17;1.20;99.90
57088;DHT22;42965;52.846;6.614;2022-12-13T14:43:44;1.00;99.90
57088;DHT22;42965;52.846;6.614;2022-12-13T14:46:13;0.80;99.90
57088;DHT22;42965;52.846;6.614;2022-12-13T14:48:53;0.60;99.90
57088;DHT22;42965;52.846;6.614;2022-12-13T14:51:32;0.50;99.90
57088;DHT22;42965;52.846;6.614;2022-12-13T14:54:02;0.30;99.90
57088;DHT22;42965;52.846;6.614;2022-12-13T14:56:29;0.20;99.90
57088;DHT22;42965;52.846;6.614;2022-12-13T14:58:57;0.10;99.90
57088;DHT22;42965;52.846;6.614;2022-12-13T15:01:29;-0.10;99.90
57088;DHT22;42965;52.846;6.614;2022-12-13T15:04:25;-0.20;99.90
57088;DHT22;42965;52.846;6.614;2022-12-13T15:09:55;-0.40;99.90
57088;DHT22;42965;52.846;6.614;2022-12-13T15:12:22;-0.50;99.90
57088;DHT22;42965;52.846;6.614;2022-12-13T15:14:55;-0.50;99.90
57088;DHT22;42965;52.846;6.614;2022-12-13T15:17:34;-0.60;99.90
57088;DHT22;42965;52.846;6.614;2022-12-13T15:20:22;-0.70;99.90
57088;DHT22;42965;52.846;6.614;2022-12-13T15:22:59;-0.70;99.90
57088;DHT22;42965;52.846;6.614;2022-12-13T15:25:32;-0.80;99.90
57088;DHT22;42965;52.846;6.614;2022-12-13T15:28:06;-0.90;99.90
57088;DHT22;42965;52.846;6.614;2022-12-13T15:30:33;-0.90;99.90
57088;DHT22;42965;52.846;6.614;2022-12-13T15:33:23;-1.10;99.90
57088;DHT22;42965;52.846;6.614;2022-12-13T15:38:37;-1.20;99.90
57088;DHT22;42965;52.846;6.614;2022-12-13T15:41:05;-1.20;99.90
57088;DHT22;42965;52.846;6.614;2022-12-13T15:43:35;-1.30;99.90
57088;DHT22;42965;52.846;6.614;2022-12-13T15:46:03;-1.30;99.90
57088;DHT22;42965;52.846;6.614;2022-12-13T15:48:35;-1.40;99.90
57088;DHT22;42965;52.846;6.614;2022-12-13T15:53:31;-1.40;99.90
57088;DHT22;42965;52.846;6.614;2022-12-13T15:55:59;-1.40;99.90
57088;DHT22;42965;52.846;6.614;2022-12-13T15:58:26;-1.50;99.90
57088;DHT22;42965;52.846;6.614;2022-12-13T16:00:54;-1.50;99.90
57088;DHT22;42965;52.846;6.614;2022-12-13T16:03:23;-1.50;99.90
57088;DHT22;42965;52.846;6.614;2022-12-13T16:05:53;-1.60;99.90
57088;DHT22;42965;52.846;6.614;2022-12-13T16:10:51;-1.70;99.90
57088;DHT22;42965;52.846;6.614;2022-12-13T16:13:25;-1.70;99.90
57088;DHT22;42965;52.846;6.614;2022-12-13T16:16:19;-1.70;99.90
57088;DHT22;42965;52.846;6.614;2022-12-13T16:18:55;-1.70;99.90
57088;DHT22;42965;52.846;6.614;2022-12-13T16:21:22;-1.80;99.90
57088;DHT22;42965;52.846;6.614;2022-12-13T16:23:49;-1.80;99.90
57088;DHT22;42965;52.846;6.614;2022-12-13T16:26:27;-1.90;99.90
57088;DHT22;42965;52.846;6.614;2022-12-13T16:28:55;-1.90;99.90
57088;DHT22;42965;52.846;6.614;2022-12-13T16:31:28;-1.90;99.90
57088;DHT22;42965;52.846;6.614;2022-12-13T16:34:02;-2.00;99.90
57088;DHT22;42965;52.846;6.614;2022-12-13T16:36:29;-2.00;99.90
57088;DHT22;42965;52.846;6.614;2022-12-13T16:38:55;-2.00;99.90
57088;DHT22;42965;52.846;6.614;2022-12-13T16:41:21;-2.10;99.90
57088;DHT22;42965;52.846;6.614;2022-12-13T16:44:00;-2.10;99.90
57088;DHT22;42965;52.846;6.614;2022-12-13T16:46:29;-2.20;99.90
57088;DHT22;42965;52.846;6.614;2022-12-13T16:48:55;-2.20;99.90
57088;DHT22;42965;52.846;6.614;2022-12-13T16:51:22;-2.20;99.90
57088;DHT22;42965;52.846;6.614;2022-12-13T16:53:48;-2.20;99.90
57088;DHT22;42965;52.846;6.614;2022-12-13T16:56:15;-2.30;99.90
57088;DHT22;42965;52.846;6.614;2022-12-13T16:58:42;-2.30;99.90
57088;DHT22;42965;52.846;6.614;2022-12-13T17:01:13;-2.30;99.90
57088;DHT22;42965;52.846;6.614;2022-12-13T17:03:49;-2.30;99.90
57088;DHT22;42965;52.846;6.614;2022-12-13T17:06:22;-2.40;99.90
57088;DHT22;42965;52.846;6.614;2022-12-13T17:08:49;-2.40;99.90
57088;DHT22;42965;52.846;6.614;2022-12-13T17:11:15;-2.40;99.90
57088;DHT22;42965;52.846;6.614;2022-12-13T17:13:41;-2.40;99.90
57088;DHT22;42965;52.846;6.614;2022-12-13T17:16:09;-2.30;99.90
57088;DHT22;42965;52.846;6.614;2022-12-13T17:18:36;-2.40;99.90
57088;DHT22;42965;52.846;6.614;2022-12-13T17:21:09;-2.30;99.90
57088;DHT22;42965;52.846;6.614;2022-12-13T17:23:36;-2.40;99.90
57088;DHT22;42965;52.846;6.614;2022-12-13T17:26:06;-2.40;99.90
57088;DHT22;42965;52.846;6.614;2022-12-13T17:28:33;-2.40;99.90
57088;DHT22;42965;52.846;6.614;2022-12-13T17:31:07;-2.50;99.90
57088;DHT22;42965;52.846;6.614;2022-12-13T17:33:34;-2.50;99.90
57088;DHT22;42965;52.846;6.614;2022-12-13T17:36:07;-2.50;99.90
57088;DHT22;42965;52.846;6.614;2022-12-13T17:38:34;-2.50;99.90
57088;DHT22;42965;52.846;6.614;2022-12-13T17:41:00;-2.50;99.90
57088;DHT22;42965;52.846;6.614;2022-12-13T17:43:26;-2.60;99.90
57088;DHT22;42965;52.846;6.614;2022-12-13T17:46:03;-2.60;99.90
57088;DHT22;42965;52.846;6.614;2022-12-13T17:48:31;-2.60;99.90
57088;DHT22;42965;52.846;6.614;2022-12-13T17:50:58;-2.60;99.90
57088;DHT22;42965;52.846;6.614;2022-12-13T17:53:24;-2.60;99.90
57088;DHT22;42965;52.846;6.614;2022-12-13T17:55:58;-2.60;99.90
57088;DHT22;42965;52.846;6.614;2022-12-13T17:58:26;-2.60;99.90
57088;DHT22;42965;52.846;6.614;2022-12-13T18:00:53;-2.60;99.90
57088;DHT22;42965;52.846;6.614;2022-12-13T18:03:20;-2.70;99.90
57088;DHT22;42965;52.846;6.614;2022-12-13T18:05:57;-2.70;99.90